Time;durP1;ratioP1;P1;durP2;ratioP2;P2;SDS_P1;SDS_P2;PMS_P1;PMS_P2;Temp;Humidity;BMP_temperature;BMP_pressure;BME280_temperature;BME280_humidity;BME280_pressure;Samples;Min_cycle;Max_cycle;Signal;HPM_P1;HPM_P2
2022/05/17 00:00:37;;;;;;;11.88;5.32;;;;;;;;;;4975456;28;20474;-73
2022/05/17 00:03:03;;;;;;;11.57;4.53;;;;;;;;;;4975633;28;20031;-73
2022/05/17 00:05:30;;;;;;;15.20;4.82;;;;;;;;;;4957769;28;20027;-73
2022/05/17 00:07:56;;;;;;;14.48;4.88;;;;;;;;;;4975596;28;20117;-72
2022/05/17 00:10:23;;;;;;;12.27;4.45;;;;;;;;;;4975375;28;20018;-72
2022/05/17 00:12:53;;;;;;;9.82;4.57;;;;;;;;;;4974959;28;20483;-73
2022/05/17 00:15:20;;;;;;;8.52;4.30;;;;;;;;;;4957740;28;20050;-72
2022/05/17 00:17:47;;;;;;;12.27;4.45;;;;;;;;;;4962917;28;20028;-73
2022/05/17 00:20:14;;;;;;;11.57;4.70;;;;;;;;;;4955885;29;20023;-73
2022/05/17 00:22:40;;;;;;;7.70;4.50;;;;;;;;;;4955733;29;20122;-73
2022/05/17 00:25:06;;;;;;;15.77;5.20;;;;;;;;;;4955541;29;20039;-73
2022/05/17 00:27:32;;;;;;;15.88;5.10;;;;;;;;;;4955955;29;20023;-72
2022/05/17 00:29:58;;;;;;;13.05;5.18;;;;;;;;;;4955586;29;20027;-72
2022/05/17 00:32:24;;;;;;;13.18;4.68;;;;;;;;;;4955751;29;20115;-72
2022/05/17 00:34:50;;;;;;;10.02;4.30;;;;;;;;;;4955967;29;20066;-73
2022/05/17 00:37:17;;;;;;;11.88;4.60;;;;;;;;;;4955550;29;20069;-73
2022/05/17 00:39:43;;;;;;;11.90;4.38;;;;;;;;;;4972134;28;20037;-72
2022/05/17 00:42:09;;;;;;;15.02;4.18;;;;;;;;;;4956880;28;20446;-72
2022/05/17 00:44:45;;;;;;;9.68;3.85;;;;;;;;;;4974662;28;20086;-72
2022/05/17 00:47:32;;;;;;;13.90;5.47;;;;;;;;;;4974801;28;20026;-72
2022/05/17 00:49:58;;;;;;;12.63;5.03;;;;;;;;;;4974553;28;20019;-72
2022/05/17 00:52:26;;;;;;;8.40;3.88;;;;;;;;;;4974578;28;20042;-72
2022/05/17 00:54:55;;;;;;;13.45;4.78;;;;;;;;;;4974587;28;20030;-72
2022/05/17 00:57:48;;;;;;;14.63;4.30;;;;;;;;;;4974521;28;20109;-72
2022/05/17 01:00:17;;;;;;;9.15;4.30;;;;;;;;;;4945213;28;20047;-72
2022/05/17 01:02:46;;;;;;;13.32;4.45;;;;;;;;;;4974395;28;20042;-72
2022/05/17 01:05:14;;;;;;;11.40;4.63;;;;;;;;;;4974259;28;20033;-72
2022/05/17 01:07:44;;;;;;;13.55;4.60;;;;;;;;;;4974217;28;20176;-72
2022/05/17 01:10:11;;;;;;;14.05;5.15;;;;;;;;;;4974265;28;20042;-72
2022/05/17 01:12:38;;;;;;;10.25;4.18;;;;;;;;;;4974346;28;20035;-72
2022/05/17 01:15:06;;;;;;;14.35;5.50;;;;;;;;;;4956779;28;20031;-72
2022/05/17 01:17:34;;;;;;;12.25;4.32;;;;;;;;;;4974034;28;20355;-72
2022/05/17 01:20:01;;;;;;;14.73;4.70;;;;;;;;;;4959715;28;20030;-72
2022/05/17 01:22:27;;;;;;;12.18;4.13;;;;;;;;;;4975755;28;20457;-72
2022/05/17 01:24:53;;;;;;;14.80;4.38;;;;;;;;;;4992729;28;20092;-72
2022/05/17 01:27:35;;;;;;;13.07;4.07;;;;;;;;;;4993524;28;20027;-72
2022/05/17 01:30:01;;;;;;;17.88;4.40;;;;;;;;;;4993532;28;20018;-72
2022/05/17 01:32:27;;;;;;;14.30;4.70;;;;;;;;;;4975689;28;20473;-72
2022/05/17 01:34:53;;;;;;;11.07;4.43;;;;;;;;;;4993517;28;20034;-71
2022/05/17 01:37:19;;;;;;;15.27;5.03;;;;;;;;;;4993113;28;20035;-72
2022/05/17 01:39:46;;;;;;;9.32;4.00;;;;;;;;;;4975979;28;20033;-72
2022/05/17 01:42:12;;;;;;;12.30;4.82;;;;;;;;;;4973563;28;20074;-72
2022/05/17 01:44:41;;;;;;;15.15;4.70;;;;;;;;;;4973612;28;20106;-72
2022/05/17 01:47:07;;;;;;;14.48;4.32;;;;;;;;;;4973636;28;20031;-72
2022/05/17 01:49:33;;;;;;;12.57;4.75;;;;;;;;;;4973585;28;20038;-71
2022/05/17 01:51:59;;;;;;;14.18;4.80;;;;;;;;;;4956017;28;20094;-72
2022/05/17 01:54:26;;;;;;;12.88;4.68;;;;;;;;;;4973516;28;20023;-72
2022/05/17 01:56:52;;;;;;;12.35;4.68;;;;;;;;;;4973585;28;20033;-72
2022/05/17 01:59:18;;;;;;;10.32;4.03;;;;;;;;;;4973455;28;20469;-72
2022/05/17 02:01:44;;;;;;;10.75;4.25;;;;;;;;;;4973323;28;20031;-74
2022/05/17 02:04:11;;;;;;;9.40;4.47;;;;;;;;;;4973184;28;20038;-71
2022/05/17 02:06:37;;;;;;;13.73;4.60;;;;;;;;;;4973215;28;20105;-72
2022/05/17 02:09:03;;;;;;;11.05;4.70;;;;;;;;;;4955734;28;20358;-72
2022/05/17 02:11:30;;;;;;;11.65;4.80;;;;;;;;;;4973175;28;20492;-72
2022/05/17 02:13:56;;;;;;;12.32;4.72;;;;;;;;;;4973325;28;20063;-71
2022/05/17 02:16:22;;;;;;;10.40;5.30;;;;;;;;;;4972113;28;20106;-72
2022/05/17 02:18:48;;;;;;;17.67;4.90;;;;;;;;;;4953929;29;20105;-72
2022/05/17 02:21:14;;;;;;;12.35;4.78;;;;;;;;;;4953696;29;20023;-71
2022/05/17 02:23:41;;;;;;;16.30;4.70;;;;;;;;;;4953770;29;20027;-72
2022/05/17 02:26:07;;;;;;;13.38;4.68;;;;;;;;;;4936305;29;20031;-72
2022/05/17 02:28:33;;;;;;;13.32;4.97;;;;;;;;;;4953548;29;20110;-72
2022/05/17 02:30:59;;;;;;;12.35;4.50;;;;;;;;;;4953560;29;20122;-71
2022/05/17 02:33:25;;;;;;;11.48;4.93;;;;;;;;;;4953550;29;20031;-72
2022/05/17 02:35:52;;;;;;;13.95;4.93;;;;;;;;;;4953370;28;20031;-72
2022/05/17 02:38:18;;;;;;;13.13;5.22;;;;;;;;;;4958692;28;20030;-72
2022/05/17 02:40:44;;;;;;;12.90;5.15;;;;;;;;;;4972556;28;20113;-71
2022/05/17 02:43:12;;;;;;;18.17;5.28;;;;;;;;;;4972675;28;20031;-72
2022/05/17 02:45:38;;;;;;;13.63;5.28;;;;;;;;;;4972655;28;20027;-72
2022/05/17 02:48:05;;;;;;;12.98;5.13;;;;;;;;;;4972570;28;20461;-71
2022/05/17 02:50:32;;;;;;;12.18;5.28;;;;;;;;;;4972532;28;20066;-72
2022/05/17 02:52:58;;;;;;;10.40;5.20;;;;;;;;;;4972598;28;20023;-72
2022/05/17 02:55:24;;;;;;;15.00;5.68;;;;;;;;;;4972615;28;20168;-71
2022/05/17 02:57:50;;;;;;;12.75;4.90;;;;;;;;;;4972581;28;20061;-71
2022/05/17 03:00:17;;;;;;;11.32;4.90;;;;;;;;;;4972464;28;20033;-72
2022/05/17 03:02:44;;;;;;;10.05;5.05;;;;;;;;;;4972493;28;20074;-71
2022/05/17 03:05:11;;;;;;;11.65;4.72;;;;;;;;;;4972310;28;20023;-72
2022/05/17 03:07:37;;;;;;;11.60;4.70;;;;;;;;;;4951647;29;20061;-71
2022/05/17 03:10:03;;;;;;;13.13;5.10;;;;;;;;;;4953044;29;20019;-72
2022/05/17 03:12:29;;;;;;;14.05;5.13;;;;;;;;;;4952044;29;20046;-72
2022/05/17 03:14:56;;;;;;;9.10;4.85;;;;;;;;;;4953116;29;20367;-71
2022/05/17 03:17:22;;;;;;;12.25;5.10;;;;;;;;;;4961740;28;20030;-72
2022/05/17 03:19:49;;;;;;;19.80;5.88;;;;;;;;;;4969447;28;20331;-71
2022/05/17 03:22:15;;;;;;;14.10;5.50;;;;;;;;;;4961697;28;20462;-72
2022/05/17 03:24:41;;;;;;;16.58;6.10;;;;;;;;;;4963023;28;20030;-72
2022/05/17 03:27:07;;;;;;;11.35;4.72;;;;;;;;;;4962873;28;20063;-72
2022/05/17 03:29:33;;;;;;;12.77;5.07;;;;;;;;;;4962295;28;20027;-72
2022/05/17 03:32:00;;;;;;;16.00;6.05;;;;;;;;;;4960993;28;20110;-72
2022/05/17 03:34:26;;;;;;;12.63;5.78;;;;;;;;;;4963114;28;20669;-71
2022/05/17 03:36:53;;;;;;;15.38;6.13;;;;;;;;;;4962326;28;20039;-72
2022/05/17 03:39:19;;;;;;;9.80;5.93;;;;;;;;;;4969003;28;21315;-72
2022/05/17 03:41:45;;;;;;;14.48;5.93;;;;;;;;;;4968832;28;20051;-72
2022/05/17 03:44:11;;;;;;;16.55;6.78;;;;;;;;;;4971630;28;20537;-72
2022/05/17 03:46:40;;;;;;;26.05;7.25;;;;;;;;;;4971545;28;20446;-72
2022/05/17 03:49:06;;;;;;;15.02;6.45;;;;;;;;;;4971975;28;20070;-72
2022/05/17 03:51:32;;;;;;;12.48;5.50;;;;;;;;;;4975126;28;20118;-72
2022/05/17 03:53:58;;;;;;;14.70;6.20;;;;;;;;;;4974939;28;20074;-72
2022/05/17 03:56:24;;;;;;;13.85;5.47;;;;;;;;;;4972564;28;20129;-72
2022/05/17 03:58:50;;;;;;;17.13;6.30;;;;;;;;;;4975309;28;20034;-72
2022/05/17 04:01:16;;;;;;;17.30;5.68;;;;;;;;;;4975063;28;20031;-72
2022/05/17 04:03:43;;;;;;;11.50;5.20;;;;;;;;;;4957310;28;20023;-72
2022/05/17 04:06:09;;;;;;;13.48;4.65;;;;;;;;;;4974829;28;20099;-71
2022/05/17 04:08:36;;;;;;;12.98;5.80;;;;;;;;;;4974921;28;20030;-72
2022/05/17 04:11:03;;;;;;;12.68;5.75;;;;;;;;;;4957478;28;20461;-72
2022/05/17 04:13:31;;;;;;;16.40;5.65;;;;;;;;;;4974802;28;20033;-72
2022/05/17 04:15:58;;;;;;;12.70;5.68;;;;;;;;;;4974784;28;20034;-71
2022/05/17 04:18:24;;;;;;;15.88;6.18;;;;;;;;;;4974141;28;20014;-71
2022/05/17 04:20:50;;;;;;;9.70;4.80;;;;;;;;;;4974226;28;20034;-71
2022/05/17 04:23:16;;;;;;;10.63;5.18;;;;;;;;;;4973773;28;20046;-72
2022/05/17 04:25:42;;;;;;;15.45;5.32;;;;;;;;;;4974605;28;20066;-72
2022/05/17 04:28:08;;;;;;;16.02;4.97;;;;;;;;;;4974930;28;20038;-73
2022/05/17 04:30:34;;;;;;;12.43;4.97;;;;;;;;;;4974734;28;20027;-72
2022/05/17 04:33:01;;;;;;;10.95;4.75;;;;;;;;;;4974988;28;20029;-72
2022/05/17 04:35:27;;;;;;;14.60;5.15;;;;;;;;;;4975232;28;20102;-72
2022/05/17 04:37:53;;;;;;;15.43;5.40;;;;;;;;;;4974746;28;20137;-71
2022/05/17 04:40:20;;;;;;;14.60;5.13;;;;;;;;;;4974719;28;20426;-72
2022/05/17 04:42:47;;;;;;;11.35;5.35;;;;;;;;;;4974640;28;20478;-72
2022/05/17 04:45:15;;;;;;;12.88;5.40;;;;;;;;;;4974699;28;20035;-71
2022/05/17 04:47:42;;;;;;;13.30;5.85;;;;;;;;;;4974687;28;20023;-71
2022/05/17 04:50:09;;;;;;;15.18;5.05;;;;;;;;;;4974344;28;20485;-72
2022/05/17 04:52:35;;;;;;;13.98;5.20;;;;;;;;;;4957012;28;20041;-72
2022/05/17 04:55:01;;;;;;;14.68;5.25;;;;;;;;;;4974587;28;20046;-72
2022/05/17 04:57:27;;;;;;;11.00;5.25;;;;;;;;;;4974596;28;20405;-72
2022/05/17 04:59:53;;;;;;;11.68;5.35;;;;;;;;;;4973311;28;20412;-72
2022/05/17 05:02:19;;;;;;;17.15;5.93;;;;;;;;;;4974287;28;20061;-72
2022/05/17 05:04:45;;;;;;;10.93;5.70;;;;;;;;;;4974241;28;20030;-73
2022/05/17 05:07:11;;;;;;;17.75;5.40;;;;;;;;;;4959154;28;20038;-73
2022/05/17 05:09:37;;;;;;;16.63;6.25;;;;;;;;;;4953554;29;20386;-73
2022/05/17 05:12:04;;;;;;;17.38;5.43;;;;;;;;;;4954926;29;20474;-72
2022/05/17 05:14:30;;;;;;;12.93;5.20;;;;;;;;;;4953382;29;20628;-73
2022/05/17 05:16:57;;;;;;;11.77;5.82;;;;;;;;;;4956480;28;20346;-73
2022/05/17 05:19:23;;;;;;;12.52;5.50;;;;;;;;;;4974077;28;20111;-73
2022/05/17 05:21:49;;;;;;;15.07;5.70;;;;;;;;;;4973827;28;20042;-72
2022/05/17 05:24:15;;;;;;;15.32;5.70;;;;;;;;;;4973987;28;20043;-73
2022/05/17 05:26:41;;;;;;;9.75;5.28;;;;;;;;;;4973968;28;20113;-73
2022/05/17 05:29:08;;;;;;;14.18;5.68;;;;;;;;;;4973911;28;20135;-73
2022/05/17 05:31:34;;;;;;;12.63;6.00;;;;;;;;;;4973669;28;20697;-73
2022/05/17 05:34:00;;;;;;;16.42;5.47;;;;;;;;;;4973870;28;20034;-73
2022/05/17 05:36:27;;;;;;;18.13;5.28;;;;;;;;;;4973671;28;20189;-73
2022/05/17 05:38:53;;;;;;;16.20;5.35;;;;;;;;;;4973588;28;20031;-73
2022/05/17 05:41:19;;;;;;;12.18;5.22;;;;;;;;;;4973300;28;20357;-73
2022/05/17 05:43:46;;;;;;;11.30;5.07;;;;;;;;;;4956285;28;20045;-73
2022/05/17 05:46:12;;;;;;;15.35;5.82;;;;;;;;;;4973450;28;20416;-73
2022/05/17 05:48:38;;;;;;;14.18;5.18;;;;;;;;;;4973513;28;20034;-73
2022/05/17 05:51:04;;;;;;;12.52;5.35;;;;;;;;;;4972781;28;20026;-72
2022/05/17 05:53:30;;;;;;;10.32;5.15;;;;;;;;;;4972993;28;20023;-73
2022/05/17 05:56:02;;;;;;;13.75;5.05;;;;;;;;;;4972556;28;20389;-73
2022/05/17 05:58:29;;;;;;;17.23;5.00;;;;;;;;;;4972820;28;20469;-73
2022/05/17 06:00:55;;;;;;;17.67;5.35;;;;;;;;;;4972589;28;20126;-73
2022/05/17 06:03:21;;;;;;;13.25;4.80;;;;;;;;;;4972815;28;20027;-73
2022/05/17 06:05:47;;;;;;;10.52;4.78;;;;;;;;;;4972594;28;20030;-73
2022/05/17 06:08:14;;;;;;;12.38;4.22;;;;;;;;;;4972611;28;20038;-72
2022/05/17 06:10:43;;;;;;;10.05;3.65;;;;;;;;;;4972125;28;20050;-73
2022/05/17 06:13:10;;;;;;;12.23;3.97;;;;;;;;;;4971503;28;20077;-73
2022/05/17 06:15:37;;;;;;;7.50;3.30;;;;;;;;;;4972746;28;20027;-73
2022/05/17 06:18:06;;;;;;;11.95;5.28;;;;;;;;;;4972729;28;20326;-73
2022/05/17 06:20:32;;;;;;;11.52;4.18;;;;;;;;;;4972712;28;20015;-72
2022/05/17 06:22:58;;;;;;;11.52;3.63;;;;;;;;;;4972661;28;20485;-72
2022/05/17 06:25:25;;;;;;;11.20;3.60;;;;;;;;;;4972412;28;20014;-72
2022/05/17 06:27:51;;;;;;;13.15;4.65;;;;;;;;;;4972811;28;20026;-73
2022/05/17 06:30:17;;;;;;;6.80;3.70;;;;;;;;;;4972513;28;20023;-73
2022/05/17 06:32:43;;;;;;;8.75;2.97;;;;;;;;;;4971945;28;20065;-73
2022/05/17 06:35:10;;;;;;;9.15;3.53;;;;;;;;;;4972665;28;20030;-73
2022/05/17 06:37:37;;;;;;;7.07;3.00;;;;;;;;;;4972536;28;20031;-73
2022/05/17 06:40:03;;;;;;;12.40;3.42;;;;;;;;;;4972276;28;20031;-73
2022/05/17 06:42:29;;;;;;;11.15;2.85;;;;;;;;;;4972183;28;20045;-73
2022/05/17 06:44:55;;;;;;;11.45;3.50;;;;;;;;;;4972330;28;20400;-72
2022/05/17 06:47:21;;;;;;;8.48;2.78;;;;;;;;;;4954657;28;20397;-73
2022/05/17 06:49:47;;;;;;;8.80;2.63;;;;;;;;;;4972227;28;20470;-72
2022/05/17 06:52:13;;;;;;;12.05;2.80;;;;;;;;;;4972044;28;20477;-73
2022/05/17 06:54:43;;;;;;;12.15;2.95;;;;;;;;;;4972147;28;20018;-72
2022/05/17 06:57:09;;;;;;;8.93;2.95;;;;;;;;;;4969708;28;20018;-72
2022/05/17 06:59:36;;;;;;;10.27;2.78;;;;;;;;;;4971736;28;20110;-73
2022/05/17 07:02:04;;;;;;;15.68;3.08;;;;;;;;;;4971684;28;20466;-73
2022/05/17 07:04:31;;;;;;;8.98;2.58;;;;;;;;;;4971297;28;20030;-73
2022/05/17 07:06:57;;;;;;;8.50;2.95;;;;;;;;;;4971472;28;20023;-73
2022/05/17 07:09:24;;;;;;;13.23;2.80;;;;;;;;;;4971989;28;20051;-73
2022/05/17 07:14:38;;;;;;;12.50;3.50;;;;;;;;;;4971217;28;20106;-72
2022/05/17 07:17:05;;;;;;;7.43;2.15;;;;;;;;;;4969758;28;20023;-73
2022/05/17 07:19:32;;;;;;;11.15;2.50;;;;;;;;;;4972341;28;20027;-72
2022/05/17 07:21:59;;;;;;;8.95;2.20;;;;;;;;;;4971943;28;20486;-73
2022/05/17 07:24:25;;;;;;;7.20;1.90;;;;;;;;;;4975043;28;20035;-72
2022/05/17 07:26:51;;;;;;;11.52;2.60;;;;;;;;;;4975884;28;20025;-73
2022/05/17 07:29:17;;;;;;;10.50;2.70;;;;;;;;;;4958410;28;20034;-73
2022/05/17 07:31:43;;;;;;;10.75;2.72;;;;;;;;;;4975683;28;20027;-73
2022/05/17 07:34:09;;;;;;;5.82;1.98;;;;;;;;;;4975744;28;20421;-73
2022/05/17 07:36:35;;;;;;;9.50;2.38;;;;;;;;;;4974721;28;20432;-73
2022/05/17 07:39:01;;;;;;;8.25;2.33;;;;;;;;;;4971264;28;20031;-73
2022/05/17 07:41:27;;;;;;;8.68;2.00;;;;;;;;;;4975262;28;20046;-73
2022/05/17 07:43:53;;;;;;;7.38;2.08;;;;;;;;;;4975847;28;20046;-72
2022/05/17 07:46:19;;;;;;;7.22;2.15;;;;;;;;;;4975694;28;20037;-74
2022/05/17 07:48:45;;;;;;;12.55;2.03;;;;;;;;;;4975800;28;20100;-73
2022/05/17 07:51:11;;;;;;;8.50;2.10;;;;;;;;;;4974801;28;20058;-75
2022/05/17 07:53:37;;;;;;;8.10;2.17;;;;;;;;;;4957911;28;20058;-75
2022/05/17 07:56:04;;;;;;;11.65;2.40;;;;;;;;;;4970398;28;20049;-75
2022/05/17 07:58:30;;;;;;;7.90;2.08;;;;;;;;;;4972984;28;20019;-75
2022/05/17 08:00:56;;;;;;;9.60;2.75;;;;;;;;;;4974631;28;20469;-75
2022/05/17 08:03:22;;;;;;;8.55;1.95;;;;;;;;;;4974987;28;20022;-75
2022/05/17 08:05:49;;;;;;;13.20;2.30;;;;;;;;;;4972483;28;20141;-75
2022/05/17 08:08:15;;;;;;;7.68;2.10;;;;;;;;;;4974760;28;20037;-75
2022/05/17 08:10:41;;;;;;;10.95;2.25;;;;;;;;;;4975554;28;20019;-75
2022/05/17 08:13:07;;;;;;;9.90;1.95;;;;;;;;;;4975554;28;20442;-77
2022/05/17 08:15:33;;;;;;;9.77;2.28;;;;;;;;;;4949726;29;20033;-77
2022/05/17 08:18:01;;;;;;;9.25;2.05;;;;;;;;;;4955767;28;20031;-77
2022/05/17 08:20:27;;;;;;;9.02;1.80;;;;;;;;;;4955539;29;20094;-76
2022/05/17 08:22:54;;;;;;;7.78;2.05;;;;;;;;;;4971863;28;20038;-77
2022/05/17 08:28:06;;;;;;;6.65;2.25;;;;;;;;;;4975037;28;20038;-76
2022/05/17 08:30:32;;;;;;;7.85;2.08;;;;;;;;;;4974811;28;20023;-77
2022/05/17 08:33:16;;;;;;;7.05;1.98;;;;;;;;;;4973750;28;20106;-77
2022/05/17 08:35:51;;;;;;;9.45;2.35;;;;;;;;;;4974707;28;20477;-77
2022/05/17 08:38:20;;;;;;;7.68;2.30;;;;;;;;;;4974419;28;20489;-77
2022/05/17 08:41:05;;;;;;;9.35;2.05;;;;;;;;;;4973856;28;20031;-79
2022/05/17 08:43:49;;;;;;;6.88;2.10;;;;;;;;;;4973461;28;20047;-80
2022/05/17 08:46:15;;;;;;;13.48;2.00;;;;;;;;;;4973637;28;20015;-79
2022/05/17 08:48:48;;;;;;;8.18;1.80;;;;;;;;;;4956416;28;20027;-79
2022/05/17 08:51:17;;;;;;;6.60;2.08;;;;;;;;;;4956712;28;20030;-79
2022/05/17 08:53:43;;;;;;;7.50;2.15;;;;;;;;;;4956644;28;20093;-79
2022/05/17 08:56:09;;;;;;;9.38;2.50;;;;;;;;;;4956625;28;20031;-79
2022/05/17 08:58:36;;;;;;;11.32;2.25;;;;;;;;;;4973982;28;20050;-79
2022/05/17 09:01:07;;;;;;;6.43;2.13;;;;;;;;;;4956233;28;20447;-79
2022/05/17 09:03:56;;;;;;;10.35;2.03;;;;;;;;;;4956172;28;20015;-79
2022/05/17 09:06:27;;;;;;;7.72;1.90;;;;;;;;;;4973509;28;20082;-79
2022/05/17 09:08:57;;;;;;;6.57;1.85;;;;;;;;;;4974056;28;20085;-79
2022/05/17 09:11:33;;;;;;;7.25;1.73;;;;;;;;;;4956493;28;20031;-80
2022/05/17 09:14:14;;;;;;;8.25;1.63;;;;;;;;;;4974204;28;20359;-76
2022/05/17 09:16:42;;;;;;;9.43;1.90;;;;;;;;;;4973455;28;20125;-75
2022/05/17 09:19:08;;;;;;;7.88;1.65;;;;;;;;;;4970026;28;20037;-76
2022/05/17 09:21:36;;;;;;;6.35;1.60;;;;;;;;;;4970188;28;20101;-76
2022/05/17 09:24:04;;;;;;;7.60;2.53;;;;;;;;;;4972978;28;20019;-76
2022/05/17 09:26:30;;;;;;;9.27;1.77;;;;;;;;;;4972021;28;20482;-76
2022/05/17 09:29:12;;;;;;;4.80;1.83;;;;;;;;;;4972607;28;20038;-76
2022/05/17 09:31:39;;;;;;;6.97;1.63;;;;;;;;;;4953623;28;20507;-76
2022/05/17 09:34:07;;;;;;;4.50;1.60;;;;;;;;;;4952898;28;20045;-76
2022/05/17 09:36:44;;;;;;;8.77;1.80;;;;;;;;;;4969874;28;20181;-76
2022/05/17 09:39:11;;;;;;;9.88;1.80;;;;;;;;;;4971177;28;20050;-76
2022/05/17 09:41:39;;;;;;;12.52;2.08;;;;;;;;;;4913579;28;1122271;-76
2022/05/17 09:44:13;;;;;;;8.02;1.75;;;;;;;;;;4973426;28;20110;-76
2022/05/17 09:46:44;;;;;;;7.10;1.80;;;;;;;;;;4955236;28;20023;-76
2022/05/17 09:52:32;;;;;;;9.88;1.60;;;;;;;;;;4971886;28;20034;-77
2022/05/17 09:55:06;;;;;;;6.85;1.80;;;;;;;;;;4971896;28;20105;-78
2022/05/17 09:57:32;;;;;;;10.13;2.28;;;;;;;;;;4974014;28;20034;-77
2022/05/17 10:00:12;;;;;;;7.28;1.92;;;;;;;;;;4973387;28;20030;-77
2022/05/17 10:02:57;;;;;;;8.25;1.80;;;;;;;;;;4971161;28;20031;-77
2022/05/17 10:05:40;;;;;;;7.25;1.50;;;;;;;;;;4936825;29;20023;-76
2022/05/17 10:08:26;;;;;;;7.25;2.10;;;;;;;;;;4954330;29;20031;-76
2022/05/17 10:11:13;;;;;;;8.98;1.92;;;;;;;;;;4956751;28;20035;-76
2022/05/17 10:13:48;;;;;;;10.95;2.10;;;;;;;;;;4973384;28;20117;-77
2022/05/17 10:16:18;;;;;;;10.63;2.33;;;;;;;;;;4973054;28;20106;-77
2022/05/17 10:18:45;;;;;;;7.65;1.80;;;;;;;;;;4971903;28;20019;-77
2022/05/17 10:21:20;;;;;;;13.13;1.85;;;;;;;;;;4972968;28;20335;-77
2022/05/17 10:23:54;;;;;;;8.57;2.08;;;;;;;;;;4973195;28;20027;-78
2022/05/17 10:26:22;;;;;;;8.55;2.17;;;;;;;;;;4973256;28;20097;-78
2022/05/17 10:28:48;;;;;;;10.10;2.75;;;;;;;;;;4973392;28;20146;-75
2022/05/17 10:31:26;;;;;;;10.82;3.05;;;;;;;;;;4948854;29;20132;-75
2022/05/17 10:34:19;;;;;;;7.55;2.35;;;;;;;;;;4972233;28;20050;-76
2022/05/17 10:36:45;;;;;;;;;;;;;;;;;;4942367;28;20074;-75
2022/05/17 10:39:21;;;;;;;6.55;2.03;;;;;;;;;;4972639;28;19953;-75
2022/05/17 10:41:48;;;;;;;5.65;1.60;;;;;;;;;;4954520;28;20031;-81
2022/05/17 10:44:16;;;;;;;8.93;2.00;;;;;;;;;;4972461;28;20031;-76
2022/05/17 10:46:48;;;;;;;9.40;2.05;;;;;;;;;;4972515;28;20085;-76
2022/05/17 10:49:26;;;;;;;6.75;1.58;;;;;;;;;;4953864;28;20030;-75
2022/05/17 10:51:58;;;;;;;8.93;1.50;;;;;;;;;;4972070;28;20031;-76
2022/05/17 10:54:24;;;;;;;;;;;;;;;;;;4970517;28;20047;-75
2022/05/17 10:56:54;;;;;;;5.47;1.70;;;;;;;;;;4954773;28;19929;-75
2022/05/17 10:59:20;;;;;;;8.00;1.63;;;;;;;;;;4972252;28;20085;-75
2022/05/17 11:01:48;;;;;;;10.10;1.58;;;;;;;;;;4972811;28;20035;-76
2022/05/17 11:04:15;;;;;;;5.03;1.40;;;;;;;;;;4972375;28;20385;-75
2022/05/17 11:06:55;;;;;;;6.03;1.40;;;;;;;;;;4971176;28;20130;-76
2022/05/17 11:09:26;;;;;;;9.02;1.42;;;;;;;;;;4971567;28;20038;-75
2022/05/17 11:12:00;;;;;;;5.85;1.10;;;;;;;;;;4968545;28;20027;-76
2022/05/17 11:14:28;;;;;;;10.20;1.35;;;;;;;;;;4971349;28;20026;-75
2022/05/17 11:17:08;;;;;;;6.80;1.50;;;;;;;;;;4954995;28;20031;-76
2022/05/17 11:19:40;;;;;;;7.35;1.40;;;;;;;;;;4972902;28;20046;-76
2022/05/17 11:22:16;;;;;;;9.98;1.52;;;;;;;;;;4955277;28;20361;-76
2022/05/17 11:24:42;;;;;;;3.22;1.10;;;;;;;;;;4952831;28;20050;-76
2022/05/17 11:27:25;;;;;;;8.15;1.50;;;;;;;;;;4972216;28;20023;-75
2022/05/17 11:30:12;;;;;;;7.15;2.15;;;;;;;;;;4971561;28;20034;-76
2022/05/17 11:32:42;;;;;;;6.72;1.75;;;;;;;;;;4957288;28;20079;-76
2022/05/17 11:35:27;;;;;;;7.45;1.55;;;;;;;;;;4954788;28;20109;-76
2022/05/17 11:37:54;;;;;;;6.60;1.73;;;;;;;;;;4971128;28;20041;-76
2022/05/17 11:40:38;;;;;;;8.05;2.05;;;;;;;;;;4954102;28;20038;-75
2022/05/17 11:45:53;;;;;;;9.13;2.10;;;;;;;;;;4972072;28;20037;-76
2022/05/17 11:48:21;;;;;;;9.35;2.03;;;;;;;;;;4971580;28;20026;-75
2022/05/17 11:50:52;;;;;;;6.63;2.03;;;;;;;;;;4970785;28;20116;-75
2022/05/17 11:53:25;;;;;;;6.40;2.10;;;;;;;;;;4972109;28;20082;-75
2022/05/17 11:56:09;;;;;;;12.32;2.30;;;;;;;;;;4971742;28;20019;-75
2022/05/17 11:58:35;;;;;;;23.60;2.50;;;;;;;;;;4972041;28;20027;-75
2022/05/17 12:01:01;;;;;;;9.93;2.40;;;;;;;;;;4971729;28;20097;-75
2022/05/17 12:04:03;;;;;;;6.25;2.00;;;;;;;;;;4971817;28;20085;-75
2022/05/17 12:06:36;;;;;;;10.40;2.70;;;;;;;;;;4893111;29;20424;-75
2022/05/17 12:09:04;;;;;;;9.63;2.90;;;;;;;;;;4894358;29;20125;-75
2022/05/17 12:11:56;;;;;;;7.03;2.35;;;;;;;;;;4896657;29;20064;-75
2022/05/17 12:14:26;;;;;;;8.07;2.75;;;;;;;;;;4896548;29;20072;-75
2022/05/17 12:16:58;;;;;;;8.70;3.28;;;;;;;;;;4896502;29;20136;-75
2022/05/17 12:19:25;;;;;;;7.13;3.28;;;;;;;;;;4896544;29;20036;-76
2022/05/17 12:22:00;;;;;;;9.38;2.97;;;;;;;;;;4896127;29;20044;-75
2022/05/17 12:24:26;;;;;;;9.32;2.97;;;;;;;;;;4896470;29;20020;-76
2022/05/17 12:26:56;;;;;;;7.65;3.00;;;;;;;;;;4896228;29;20403;-76
2022/05/17 12:32:10;;;;;;;6.47;2.50;;;;;;;;;;4896611;29;20101;-74
2022/05/17 12:34:39;;;;;;;10.63;2.88;;;;;;;;;;4896113;29;20041;-75
2022/05/17 12:37:08;;;;;;;12.85;3.80;;;;;;;;;;4896194;29;20062;-75
2022/05/17 12:45:23;;;;;;;9.10;2.92;;;;;;;;;;4914987;29;20475;-76
2022/05/17 12:47:59;;;;;;;10.40;3.00;;;;;;;;;;4914606;29;20040;-76
2022/05/17 12:50:40;;;;;;;8.70;2.92;;;;;;;;;;4914583;29;20085;-76
2022/05/17 12:53:11;;;;;;;8.18;3.33;;;;;;;;;;4914604;29;20040;-76
2022/05/17 12:55:37;;;;;;;9.77;3.10;;;;;;;;;;4898611;29;20074;-75
2022/05/17 12:58:10;;;;;;;9.05;3.45;;;;;;;;;;4914784;29;20044;-75
2022/05/17 13:00:36;;;;;;;8.93;2.63;;;;;;;;;;4898687;29;20059;-75
2022/05/17 13:03:22;;;;;;;7.75;3.63;;;;;;;;;;4914591;29;20159;-75
2022/05/17 13:05:51;;;;;;;10.55;3.08;;;;;;;;;;4914079;29;20032;-75
2022/05/17 13:08:21;;;;;;;7.55;2.92;;;;;;;;;;4914313;29;20036;-75
2022/05/17 13:11:06;;;;;;;10.05;3.00;;;;;;;;;;4914199;29;20052;-75
2022/05/17 13:13:34;;;;;;;10.18;2.95;;;;;;;;;;4914243;29;20509;-76
2022/05/17 13:16:04;;;;;;;8.43;3.38;;;;;;;;;;4914366;29;20113;-75
2022/05/17 13:18:39;;;;;;;7.40;2.50;;;;;;;;;;4917601;28;20432;-75
2022/05/17 13:21:07;;;;;;;5.57;2.80;;;;;;;;;;4972870;28;20023;-76
2022/05/17 13:23:33;;;;;;;12.63;2.92;;;;;;;;;;4973927;28;20023;-75
2022/05/17 13:26:02;;;;;;;7.32;2.70;;;;;;;;;;4973738;28;20023;-75
2022/05/17 13:28:31;;;;;;;8.25;3.42;;;;;;;;;;4973870;28;20023;-75
2022/05/17 13:31:14;;;;;;;6.45;3.00;;;;;;;;;;4973625;28;20030;-75
2022/05/17 13:33:42;;;;;;;14.15;3.92;;;;;;;;;;4957158;28;20019;-75
2022/05/17 13:36:13;;;;;;;18.45;3.65;;;;;;;;;;4973619;28;20030;-75
2022/05/17 13:38:39;;;;;;;9.02;3.13;;;;;;;;;;4956031;28;20034;-75
2022/05/17 13:41:16;;;;;;;6.65;2.90;;;;;;;;;;4973400;28;20061;-76
2022/05/17 13:43:42;;;;;;;11.80;3.15;;;;;;;;;;4973491;28;20157;-76
2022/05/17 13:46:08;;;;;;;10.40;3.70;;;;;;;;;;4973340;28;20500;-75
2022/05/17 13:48:36;;;;;;;11.88;4.05;;;;;;;;;;4973357;28;20027;-76
2022/05/17 13:51:03;;;;;;;7.32;3.25;;;;;;;;;;4955780;28;20027;-76
2022/05/17 13:53:34;;;;;;;5.63;2.90;;;;;;;;;;4973330;28;20031;-78
2022/05/17 13:56:01;;;;;;;6.10;2.40;;;;;;;;;;4973172;28;20058;-77
2022/05/17 13:58:28;;;;;;;6.35;2.53;;;;;;;;;;4955981;28;20027;-78
2022/05/17 14:01:18;;;;;;;5.28;2.70;;;;;;;;;;4973101;28;20078;-77
2022/05/17 14:04:02;;;;;;;10.00;3.00;;;;;;;;;;4961811;28;20063;-78
2022/05/17 14:06:40;;;;;;;5.55;2.05;;;;;;;;;;4972438;28;20031;-76
2022/05/17 14:11:55;;;;;;;6.18;1.90;;;;;;;;;;4971043;28;20086;-76
2022/05/17 14:14:24;;;;;;;5.90;1.92;;;;;;;;;;4972950;28;20018;-76
2022/05/17 14:16:55;;;;;;;5.05;1.73;;;;;;;;;;4971184;28;20030;-75
2022/05/17 14:19:22;;;;;;;5.07;2.17;;;;;;;;;;4972645;28;20119;-73
2022/05/17 14:21:53;;;;;;;5.45;1.70;;;;;;;;;;4972296;28;20074;-74
2022/05/17 14:24:19;;;;;;;7.10;2.10;;;;;;;;;;4964438;28;20021;-74
2022/05/17 14:26:46;;;;;;;9.85;2.20;;;;;;;;;;4963537;28;20153;-75
2022/05/17 14:29:12;;;;;;;7.78;1.90;;;;;;;;;;4970510;28;20046;-74
2022/05/17 14:31:39;;;;;;;11.48;1.83;;;;;;;;;;4972355;28;20502;-74
2022/05/17 14:34:09;;;;;;;6.85;2.20;;;;;;;;;;4972451;28;20465;-77
2022/05/17 14:36:35;;;;;;;5.55;2.22;;;;;;;;;;4971670;28;20090;-76
2022/05/17 14:39:02;;;;;;;7.03;1.90;;;;;;;;;;4970970;28;20129;-78
2022/05/17 14:41:30;;;;;;;10.13;1.70;;;;;;;;;;4972111;28;20031;-79
2022/05/17 14:43:56;;;;;;;5.95;1.92;;;;;;;;;;4971965;28;20039;-78
2022/05/17 14:46:22;;;;;;;11.18;2.17;;;;;;;;;;4971324;28;20030;-81
2022/05/17 14:48:49;;;;;;;7.13;1.90;;;;;;;;;;4972516;28;20507;-75
2022/05/17 14:51:22;;;;;;;7.43;1.70;;;;;;;;;;4967708;28;20027;-78
2022/05/17 14:53:48;;;;;;;12.57;2.05;;;;;;;;;;4945880;28;20034;-78
2022/05/17 14:56:15;;;;;;;5.13;1.83;;;;;;;;;;4943267;28;20030;-78
2022/05/17 14:58:41;;;;;;;9.10;2.13;;;;;;;;;;4960951;28;20035;-78
2022/05/17 15:01:11;;;;;;;8.50;1.70;;;;;;;;;;4960577;28;20078;-78
2022/05/17 15:03:39;;;;;;;5.80;1.70;;;;;;;;;;4954955;28;20019;-76
2022/05/17 15:06:05;;;;;;;5.03;1.73;;;;;;;;;;4950858;28;20067;-78
2022/05/17 15:08:31;;;;;;;6.82;1.77;;;;;;;;;;4973123;28;20077;-77